Time;durP1;ratioP1;P1;durP2;ratioP2;P2;SDS_P1;SDS_P2;PMS_P1;PMS_P2;Temp;Humidity;BMP_temperature;BMP_pressure;BME280_temperature;BME280_humidity;BME280_pressure;Samples;Min_cycle;Max_cycle;Signal;HPM_P1;HPM_P2
2021/06/03 00:06:06;;;;;;;6.82;2.65;;;20.90;54.40;;;;;;20823293;28;20091;-20
2021/06/03 00:16:12;;;;;;;8.80;4.00;;;20.90;54.30;;;;;;20834451;28;20609;-20
2021/06/03 00:26:13;;;;;;;5.53;3.15;;;20.90;54.30;;;;;;20832844;28;20025;-19
2021/06/03 00:36:13;;;;;;;4.70;2.63;;;20.90;54.30;;;;;;20833729;28;20044;-20
2021/06/03 00:46:14;;;;;;;6.43;2.97;;;21.00;54.40;;;;;;20831949;28;20507;-20
2021/06/03 00:56:15;;;;;;;6.47;2.97;;;20.90;54.30;;;;;;20831608;28;20032;-20
2021/06/03 01:06:17;;;;;;;5.75;2.55;;;20.90;54.40;;;;;;20829791;28;20455;-19
2021/06/03 01:16:19;;;;;;;5.43;2.97;;;20.90;54.40;;;;;;20829926;28;20167;-20
2021/06/03 01:26:20;;;;;;;5.72;2.85;;;20.90;54.40;;;;;;20836994;28;20025;-22
2021/06/03 01:36:20;;;;;;;5.40;2.80;;;20.90;54.40;;;;;;20878963;22;20033;-20
2021/06/03 01:46:21;;;;;;;4.90;2.83;;;20.90;54.40;;;;;;20845738;28;20094;-20
2021/06/03 01:56:22;;;;;;;7.55;2.80;;;20.90;54.40;;;;;;20831057;28;20481;-19
2021/06/03 02:06:24;;;;;;;10.60;3.63;;;20.90;54.40;;;;;;20858049;28;20040;-20
2021/06/03 02:16:35;;;;;;;4.53;3.38;;;20.90;54.50;;;;;;20830405;28;20029;-19
2021/06/03 02:26:38;;;;;;;3.22;2.22;;;20.90;54.40;;;;;;20850138;28;20021;-20
2021/06/03 02:36:39;;;;;;;5.63;2.05;;;20.90;54.50;;;;;;20853641;28;20128;-20
2021/06/03 02:46:39;;;;;;;4.30;2.40;;;20.90;54.40;;;;;;20850410;28;20025;-20
2021/06/03 02:56:40;;;;;;;4.82;2.92;;;20.90;54.50;;;;;;20853332;28;20101;-19
2021/06/03 03:06:41;;;;;;;3.92;2.47;;;20.90;54.40;;;;;;20855696;28;20041;-20
2021/06/03 03:16:41;;;;;;;3.40;2.30;;;20.90;54.40;;;;;;20843772;28;20083;-19
2021/06/03 03:26:42;;;;;;;5.53;2.75;;;20.90;54.50;;;;;;20807002;28;20059;-20
2021/06/03 03:36:42;;;;;;;4.00;2.75;;;20.90;54.40;;;;;;20796572;28;20111;-20
2021/06/03 03:46:43;;;;;;;4.23;2.67;;;20.90;54.40;;;;;;20808983;28;20044;-20
2021/06/03 03:56:44;;;;;;;6.25;3.53;;;20.90;54.40;;;;;;20828624;28;20041;-20
2021/06/03 04:06:44;;;;;;;4.60;2.35;;;20.90;54.40;;;;;;20817058;28;20026;-20
2021/06/03 04:16:45;;;;;;;5.90;2.65;;;20.90;54.40;;;;;;20817038;28;20033;-20
2021/06/03 04:26:46;;;;;;;4.82;3.20;;;20.90;54.50;;;;;;20817402;28;20030;-33
2021/06/03 04:36:46;;;;;;;7.65;2.90;;;20.90;54.40;;;;;;20819447;28;20112;-20
2021/06/03 04:46:49;;;;;;;3.78;2.67;;;20.90;54.40;;;;;;20833394;28;20155;-20
2021/06/03 04:56:50;;;;;;;8.60;4.28;;;20.90;54.50;;;;;;20779108;28;20101;-20
2021/06/03 05:06:51;;;;;;;4.88;2.78;;;20.90;54.60;;;;;;20751524;28;20541;-20
2021/06/03 05:16:51;;;;;;;9.38;3.70;;;20.90;54.70;;;;;;20750680;28;20152;-20
2021/06/03 05:26:52;;;;;;;7.32;3.40;;;20.90;54.70;;;;;;20764859;28;20041;-20
2021/06/03 05:36:53;;;;;;;9.98;2.95;;;20.90;54.90;;;;;;20825992;28;20041;-20
2021/06/03 05:46:54;;;;;;;27.30;6.00;;;20.90;55.00;;;;;;20826515;28;20501;-20
2021/06/03 05:56:55;;;;;;;30.35;8.18;;;20.90;55.50;;;;;;20825336;28;20029;-20
2021/06/03 06:06:56;;;;;;;26.33;8.30;;;21.00;55.90;;;;;;20830422;28;20033;-20
2021/06/03 06:16:56;;;;;;;25.48;6.55;;;21.00;55.60;;;;;;20840587;28;20041;-21
2021/06/03 06:26:58;;;;;;;25.35;6.72;;;21.00;55.50;;;;;;20861313;28;20037;-20
2021/06/03 06:36:59;;;;;;;20.42;6.47;;;21.00;55.60;;;;;;20814705;28;20034;-20
2021/06/03 06:47:00;;;;;;;19.05;6.25;;;20.90;55.40;;;;;;20789726;28;20463;-21
2021/06/03 06:57:01;;;;;;;21.92;6.95;;;21.00;55.60;;;;;;20815899;28;20030;-21
2021/06/03 07:07:01;;;;;;;14.27;5.88;;;21.00;55.80;;;;;;20817126;28;20135;-20
2021/06/03 07:17:02;;;;;;;9.10;3.97;;;21.00;55.70;;;;;;20839746;28;20026;-20
2021/06/03 07:27:04;;;;;;;6.97;4.80;;;21.10;55.60;;;;;;20823344;28;20114;-20
2021/06/03 07:37:05;;;;;;;6.75;4.00;;;21.10;55.60;;;;;;20818394;28;20029;-20
2021/06/03 07:47:05;;;;;;;7.97;3.47;;;21.10;55.60;;;;;;20833785;28;20064;-20
2021/06/03 07:57:06;;;;;;;13.95;4.18;;;21.10;55.50;;;;;;20790597;28;21046;-20
2021/06/03 08:07:10;;;;;;;6.93;4.00;;;21.20;55.50;;;;;;20845963;28;20025;-20
2021/06/03 08:17:10;;;;;;;6.35;3.53;;;21.20;55.70;;;;;;20838443;28;20045;-20
2021/06/03 08:27:11;;;;;;;5.60;3.83;;;21.20;55.90;;;;;;20808625;28;20387;-21
2021/06/03 08:37:11;;;;;;;3.92;3.42;;;21.30;56.20;;;;;;20808505;28;20120;-21
2021/06/03 08:47:12;;;;;;;4.70;3.47;;;21.40;56.40;;;;;;20861803;23;20049;-20
2021/06/03 08:57:13;;;;;;;9.37;3.90;;;21.30;56.60;;;;;;20903344;28;20451;-20
2021/06/03 09:07:32;;;;;;;9.83;4.70;;;21.30;57.20;;;;;;20945524;28;20498;-21
2021/06/03 09:17:48;;;;;;;9.77;5.20;;;21.40;57.90;;;;;;20953542;28;20486;-21
2021/06/03 09:27:49;;;;;;;11.02;4.78;;;21.50;58.60;;;;;;20923222;28;20029;-20
2021/06/03 09:38:04;;;;;;;10.45;3.92;;;21.50;59.20;;;;;;20921203;28;20033;-21
2021/06/03 09:48:04;;;;;;;8.55;3.65;;;21.60;59.50;;;;;;20953829;28;20493;-21
2021/06/03 09:58:05;;;;;;;8.85;3.95;;;21.70;59.00;;;;;;20983981;28;20028;-21
2021/06/03 10:08:06;;;;;;;5.43;3.67;;;21.60;58.50;;;;;;20981830;28;20070;-21
2021/06/03 10:18:15;;;;;;;7.15;3.50;;;21.70;58.20;;;;;;20901374;28;20029;-21
2021/06/03 10:28:20;;;;;;;9.48;2.92;;;21.70;58.30;;;;;;20903611;28;20104;-21
2021/06/03 10:38:21;;;;;;;7.78;3.50;;;21.80;57.40;;;;;;20934370;28;20025;-21
2021/06/03 10:48:22;;;;;;;4.15;2.70;;;21.80;57.30;;;;;;20975650;28;20029;-21
2021/06/03 10:58:40;;;;;;;5.03;3.80;;;21.80;57.20;;;;;;20967361;28;20392;-21
2021/06/03 11:09:05;;;;;;;8.68;3.58;;;21.90;57.50;;;;;;20936157;28;20045;-21
2021/06/03 11:19:09;;;;;;;4.85;3.13;;;22.00;58.20;;;;;;20940697;28;20029;-21
2021/06/03 11:29:24;;;;;;;4.88;3.30;;;22.00;58.40;;;;;;20924763;28;20086;-20
2021/06/03 11:39:31;;;;;;;6.50;3.22;;;22.00;58.50;;;;;;20909964;28;20029;-21
2021/06/03 11:49:41;;;;;;;6.13;3.33;;;22.10;58.50;;;;;;20942242;28;20059;-20
2021/06/03 12:00:03;;;;;;;6.03;4.00;;;22.10;58.40;;;;;;21001820;28;20031;-21
2021/06/03 12:10:04;;;;;;;6.15;3.17;;;22.10;57.60;;;;;;20964910;28;20454;-19
2021/06/03 12:20:05;;;;;;;5.78;3.42;;;22.20;56.80;;;;;;20952353;28;20040;-20
2021/06/03 12:30:30;;;;;;;5.90;3.78;;;22.20;56.90;;;;;;20955168;28;20056;-21
2021/06/03 12:40:31;;;;;;;4.03;3.00;;;22.10;57.30;;;;;;20966985;28;20025;-21
2021/06/03 12:50:37;;;;;;;5.55;3.78;;;22.20;57.20;;;;;;20964110;28;20116;-20
2021/06/03 13:00:39;;;;;;;4.45;4.05;;;22.20;57.30;;;;;;20957883;28;20029;-21
2021/06/03 13:10:40;;;;;;;5.68;4.00;;;22.30;57.60;;;;;;20974896;28;20025;-21
2021/06/03 13:20:51;;;;;;;5.55;3.40;;;22.30;57.20;;;;;;20929609;28;20120;-21
2021/06/03 13:30:57;;;;;;;6.85;4.60;;;22.30;57.30;;;;;;20949959;28;20035;-20
2021/06/03 13:41:06;;;;;;;6.70;4.20;;;22.30;57.60;;;;;;20945683;28;20028;-22
2021/06/03 13:51:15;;;;;;;6.68;4.90;;;22.40;57.50;;;;;;20936266;28;20036;-21
2021/06/03 14:01:38;;;;;;;7.75;5.18;;;22.40;58.20;;;;;;20946764;28;20391;-20
2021/06/03 14:22:02;;;;;;;8.25;3.78;;;22.30;57.10;;;;;;20953944;28;20025;-20
2021/06/03 14:32:10;;;;;;;4.47;2.75;;;22.30;56.20;;;;;;20946375;28;20013;-20
2021/06/03 14:52:23;;;;;;;18.08;3.40;;;22.10;54.50;;;;;;21030619;28;20682;-21
2021/06/03 15:02:24;;;;;;;17.38;4.05;;;22.00;57.50;;;;;;21040517;28;20033;-21
2021/06/03 15:12:25;;;;;;;39.53;5.57;;;21.90;59.70;;;;;;21050385;28;20028;-21
2021/06/03 15:22:26;;;;;;;27.67;5.53;;;21.90;60.00;;;;;;21029617;28;20108;-20
2021/06/03 15:32:27;;;;;;;23.47;4.10;;;21.90;60.20;;;;;;21008509;28;20119;-19
2021/06/03 15:42:27;;;;;;;16.27;4.03;;;21.90;60.60;;;;;;20988394;28;20040;-20
2021/06/03 15:52:28;;;;;;;10.65;3.00;;;21.90;60.50;;;;;;20989927;28;20032;-20
2021/06/03 16:02:28;;;;;;;11.23;3.40;;;21.80;60.40;;;;;;21014340;28;20028;-19
2021/06/03 16:12:29;;;;;;;23.05;3.50;;;21.90;61.00;;;;;;20997437;28;20448;-20
2021/06/03 16:22:29;;;;;;;23.70;5.07;;;21.80;61.20;;;;;;21010000;28;20036;-20
2021/06/03 16:32:30;;;;;;;12.00;3.35;;;21.80;60.90;;;;;;21030510;28;20040;-20
2021/06/03 16:42:30;;;;;;;9.25;2.42;;;21.80;61.90;;;;;;21037406;28;20028;-20
2021/06/03 16:52:31;;;;;;;36.20;5.75;;;21.70;62.00;;;;;;21017083;28;20613;-19
2021/06/03 17:02:32;;;;;;;39.85;4.43;;;21.80;62.60;;;;;;21003679;28;20104;-21
2021/06/03 17:12:33;;;;;;;24.25;4.15;;;21.80;62.80;;;;;;21036989;28;20050;-20
2021/06/03 17:22:34;;;;;;;27.75;5.63;;;21.90;63.00;;;;;;21058382;28;20094;-20
2021/06/03 17:32:35;;;;;;;18.52;4.22;;;22.30;64.90;;;;;;21057913;28;20471;-20
2021/06/03 17:42:37;;;;;;;15.98;4.07;;;22.30;65.60;;;;;;21053063;28;20032;-20
2021/06/03 17:52:39;;;;;;;8.73;3.90;;;22.40;64.90;;;;;;21059466;28;20488;-20
2021/06/03 18:02:39;;;;;;;13.88;4.45;;;22.40;64.80;;;;;;21074280;28;20109;-20
2021/06/03 18:12:41;;;;;;;12.77;3.40;;;22.30;64.70;;;;;;21071005;28;20028;-20
2021/06/03 18:22:43;;;;;;;19.02;4.40;;;22.40;64.00;;;;;;21050422;28;20518;-19
2021/06/03 18:32:44;;;;;;;8.25;4.10;;;22.50;64.10;;;;;;21048917;28;20115;-19
2021/06/03 18:42:45;;;;;;;28.93;5.80;;;22.50;64.10;;;;;;21051817;28;20064;-20
2021/06/03 18:52:46;;;;;;;42.60;6.38;;;22.50;64.30;;;;;;21043774;28;20506;-18
2021/06/03 19:02:48;;;;;;;20.35;6.20;;;22.40;64.30;;;;;;21022230;28;20119;-20
2021/06/03 19:12:49;;;;;;;20.10;7.93;;;22.20;64.10;;;;;;21033904;28;20165;-20
2021/06/03 19:22:51;;;;;;;27.23;8.63;;;22.10;64.30;;;;;;21031919;28;20036;-20
2021/06/03 19:32:53;;;;;;;21.08;7.82;;;22.00;64.70;;;;;;21049235;28;20032;-20
2021/06/03 19:42:55;;;;;;;18.95;7.03;;;21.90;64.70;;;;;;21001315;28;20143;-20
2021/06/03 19:52:56;;;;;;;14.98;6.30;;;22.00;64.80;;;;;;21032724;28;20183;-20
2021/06/03 20:02:57;;;;;;;31.23;7.53;;;22.00;64.80;;;;;;21027061;28;20080;-20
2021/06/03 20:12:58;;;;;;;15.05;6.93;;;22.00;64.80;;;;;;21017400;28;20043;-19
2021/06/03 20:22:58;;;;;;;14.18;4.85;;;22.00;64.70;;;;;;21046336;28;20377;-20
2021/06/03 20:32:59;;;;;;;9.73;4.93;;;22.00;64.80;;;;;;21030396;28;20612;-20
2021/06/03 20:43:01;;;;;;;8.15;4.40;;;22.10;64.80;;;;;;21025532;28;20029;-20
2021/06/03 20:53:04;;;;;;;9.65;4.53;;;22.00;64.60;;;;;;21026587;28;20020;-20
2021/06/03 21:03:05;;;;;;;7.68;4.18;;;22.00;64.60;;;;;;21054983;28;20220;-20
2021/06/03 21:13:06;;;;;;;8.07;4.10;;;22.00;64.60;;;;;;21055729;28;20110;-20
2021/06/03 21:23:07;;;;;;;9.60;3.15;;;22.00;64.60;;;;;;21053730;28;20052;-20
2021/06/03 21:33:10;;;;;;;8.73;3.45;;;21.90;64.40;;;;;;21053389;28;20029;-20
2021/06/03 21:43:13;;;;;;;10.25;3.15;;;21.90;64.60;;;;;;21037248;28;20077;-20
2021/06/03 21:53:14;;;;;;;5.32;3.65;;;21.80;64.30;;;;;;21046566;22;20052;-21
2021/06/03 22:03:24;;;;;;;7.30;2.95;;;21.80;63.90;;;;;;21014081;28;20085;-21
2021/06/03 22:13:25;;;;;;;11.40;3.50;;;21.80;63.60;;;;;;21030207;28;20384;-21
2021/06/03 22:23:26;;;;;;;14.45;3.33;;;21.80;64.00;;;;;;21065672;28;20056;-21
2021/06/03 22:33:26;;;;;;;11.77;3.72;;;21.80;64.30;;;;;;20986502;28;20401;-21
2021/06/03 22:43:29;;;;;;;12.90;4.22;;;21.80;64.30;;;;;;21058491;28;20161;-21
2021/06/03 22:53:35;;;;;;;8.40;3.35;;;21.70;64.60;;;;;;21072017;28;20039;-21
2021/06/03 23:03:36;;;;;;;14.52;4.40;;;21.70;64.40;;;;;;21007814;28;20020;-21
2021/06/03 23:13:38;;;;;;;9.23;4.05;;;21.70;64.60;;;;;;21070695;28;20032;-21
2021/06/03 23:23:40;;;;;;;10.85;3.63;;;21.70;64.30;;;;;;21069812;28;20070;-21
2021/06/03 23:33:41;;;;;;;16.50;3.75;;;21.70;64.10;;;;;;21070139;28;20598;-21
2021/06/03 23:43:42;;;;;;;13.37;2.97;;;21.70;64.00;;;;;;21071681;28;20032;-20
2021/06/03 23:53:42;;;;;;;5.60;3.70;;;21.70;63.80;;;;;;21018367;28;20569;-20
